createdAt,value
2018-07-01T00:00:38.512Z,46.50
2018-07-01T00:03:13.108Z,46.50
2018-07-01T00:05:47.741Z,47.00
2018-07-01T00:08:21.568Z,46.90
2018-07-01T00:10:55.219Z,47.20
2018-07-01T00:13:29.091Z,47.40
2018-07-01T00:16:02.740Z,47.20
2018-07-01T00:18:37.289Z,47.80
2018-07-01T00:21:11.059Z,47.80
2018-07-01T00:23:44.928Z,47.70
2018-07-01T00:26:18.640Z,47.70
2018-07-01T00:28:53.245Z,48.30
2018-07-01T00:31:27.012Z,48.20
2018-07-01T00:34:00.651Z,48.60
2018-07-01T00:36:35.222Z,48.70
2018-07-01T00:39:09.033Z,48.60
2018-07-01T00:41:43.568Z,49.00
2018-07-01T00:44:17.375Z,49.00
2018-07-01T00:46:51.928Z,49.00
2018-07-01T00:49:25.737Z,49.00
2018-07-01T00:52:00.345Z,49.70
2018-07-01T00:54:34.191Z,49.70
2018-07-01T00:57:08.680Z,49.70
2018-07-01T00:59:42.490Z,49.70
2018-07-01T01:02:16.305Z,49.80
2018-07-01T01:04:50.867Z,50.20
2018-07-01T01:07:25.453Z,49.60
2018-07-01T01:09:59.917Z,49.80
2018-07-01T01:12:33.789Z,49.80
2018-07-01T01:15:08.272Z,50.40
2018-07-01T01:17:42.044Z,50.40
2018-07-01T01:20:16.608Z,50.50
2018-07-01T01:22:51.249Z,49.90
2018-07-01T01:25:25.039Z,49.90
2018-07-01T01:27:58.808Z,49.60
2018-07-01T01:30:33.351Z,50.10
2018-07-01T01:33:07.226Z,50.10
2018-07-01T01:35:41.803Z,50.40
2018-07-01T01:38:16.025Z,50.40
2018-07-01T01:40:49.712Z,50.00
2018-07-01T01:43:23.426Z,49.80
2018-07-01T01:45:58.052Z,50.00
2018-07-01T01:48:32.548Z,51.20
2018-07-01T01:51:07.120Z,50.50
2018-07-01T01:53:40.895Z,50.50
2018-07-01T01:56:15.518Z,50.70
2018-07-01T01:58:49.259Z,50.20
2018-07-01T02:01:23.852Z,49.80
2018-07-01T02:03:57.676Z,49.80
2018-07-01T02:06:31.498Z,50.10
2018-07-01T02:09:05.213Z,51.30
2018-07-01T02:11:39.662Z,52.60
2018-07-01T02:14:13.468Z,52.10
2018-07-01T02:16:47.997Z,53.30
2018-07-01T02:19:22.527Z,53.70
2018-07-01T02:21:57.057Z,53.70
2018-07-01T02:24:31.581Z,53.80
2018-07-01T02:27:05.397Z,53.80
2018-07-01T02:29:39.887Z,54.80
2018-07-01T02:32:13.617Z,54.80
2018-07-01T02:34:48.029Z,54.60
2018-07-01T02:37:21.841Z,54.60
2018-07-01T02:39:56.308Z,55.20
2018-07-01T02:42:29.900Z,55.20
2018-07-01T02:45:04.420Z,55.40
2018-07-01T02:47:38.288Z,55.30
2018-07-01T02:50:11.972Z,55.90
2018-07-01T02:52:46.492Z,56.00
2018-07-01T02:55:20.317Z,55.90
2018-07-01T02:57:54.827Z,56.70
2018-07-01T03:00:28.482Z,56.60
2018-07-01T03:03:02.122Z,55.60
2018-07-01T03:05:36.720Z,56.70
2018-07-01T03:08:10.515Z,56.70
2018-07-01T03:10:45.021Z,56.70
2018-07-01T03:13:18.776Z,56.70
2018-07-01T03:15:52.622Z,58.00
2018-07-01T03:18:26.525Z,57.40
2018-07-01T03:21:01.143Z,58.50
2018-07-01T03:23:34.851Z,58.50
2018-07-01T03:26:08.531Z,59.00
2018-07-01T03:28:42.196Z,59.40
2018-07-01T03:31:15.909Z,59.60
2018-07-01T03:33:50.474Z,60.60
2018-07-01T03:36:24.216Z,60.60
2018-07-01T03:38:58.804Z,61.30
2018-07-01T03:41:33.449Z,60.90
2018-07-01T03:44:07.179Z,60.80
2018-07-01T03:46:40.849Z,61.00
2018-07-01T03:49:14.747Z,60.70
2018-07-01T03:51:48.436Z,61.70
2018-07-01T03:54:22.185Z,61.90
2018-07-01T03:56:56.817Z,62.30
2018-07-01T03:59:30.529Z,62.30
2018-07-01T04:02:04.379Z,63.10
2018-07-01T04:04:38.133Z,63.20
2018-07-01T04:07:13.276Z,63.00
2018-07-01T04:09:47.021Z,62.90
2018-07-01T04:12:20.588Z,62.50
2018-07-01T04:14:54.406Z,62.90
2018-07-01T04:17:28.220Z,63.30
2018-07-01T04:20:02.012Z,62.90
2018-07-01T04:22:35.873Z,61.50
2018-07-01T04:25:09.590Z,61.30
2018-07-01T04:27:43.373Z,60.40
2018-07-01T04:30:17.240Z,59.60
2018-07-01T04:32:51.802Z,61.20
2018-07-01T04:35:25.573Z,61.20
2018-07-01T04:37:59.330Z,60.20
2018-07-01T04:40:33.020Z,60.40
2018-07-01T04:43:06.683Z,60.30
2018-07-01T04:45:40.564Z,60.50
2018-07-01T04:48:14.308Z,59.80
2018-07-01T04:50:48.034Z,59.60
2018-07-01T04:53:21.657Z,60.10
2018-07-01T04:55:55.473Z,60.50
2018-07-01T04:58:29.160Z,59.40
2018-07-01T05:01:03.683Z,57.50
2018-07-01T05:03:38.218Z,57.60
2018-07-01T05:06:12.800Z,55.20
2018-07-01T05:08:46.468Z,55.20
2018-07-01T05:11:20.296Z,53.90
2018-07-01T05:13:54.084Z,51.00
2018-07-01T05:16:28.670Z,47.30
2018-07-01T05:19:03.110Z,46.00
2018-07-01T05:21:36.932Z,45.90
2018-07-01T05:24:11.538Z,44.50
2018-07-01T05:26:45.404Z,44.50
2018-07-01T05:29:19.973Z,49.00
2018-07-01T05:31:53.728Z,48.90
2018-07-01T05:34:28.419Z,52.00
2018-07-01T05:37:03.024Z,52.70
2018-07-01T05:39:36.744Z,52.60
2018-07-01T05:42:11.461Z,53.50
2018-07-01T05:44:45.261Z,53.50
2018-07-01T05:47:18.957Z,53.60
2018-07-01T05:49:53.567Z,54.20
2018-07-01T05:52:28.236Z,54.60
2018-07-01T05:55:02.696Z,54.70
2018-07-01T05:57:37.275Z,54.80
2018-07-01T06:00:11.088Z,54.70
2018-07-01T06:02:45.563Z,55.20
2018-07-01T06:05:19.324Z,55.20
2018-07-01T06:07:53.892Z,55.90
2018-07-01T06:10:27.654Z,55.70
2018-07-01T06:13:01.471Z,56.20
2018-07-01T06:15:35.128Z,56.10
2018-07-01T06:18:08.829Z,56.00
2018-07-01T06:20:43.322Z,55.80
2018-07-01T06:23:16.921Z,56.20
2018-07-01T06:25:50.549Z,55.10
2018-07-01T06:28:24.312Z,55.30
2018-07-01T06:30:58.212Z,54.90
2018-07-01T06:33:31.970Z,55.20
2018-07-01T06:36:05.724Z,55.60
2018-07-01T06:38:39.568Z,54.80
2018-07-01T06:41:13.284Z,54.70
2018-07-01T06:43:46.976Z,54.60
2018-07-01T06:46:20.733Z,54.50
2018-07-01T06:48:55.293Z,54.20
2018-07-01T06:51:28.916Z,54.20
2018-07-01T06:54:03.576Z,54.20
2018-07-01T06:56:37.384Z,54.20
2018-07-01T06:59:11.904Z,53.90
2018-07-01T07:01:45.701Z,53.90
2018-07-01T07:04:19.392Z,53.70
2018-07-01T07:06:53.132Z,54.80
2018-07-01T07:09:27.789Z,54.20
2018-07-01T07:12:01.411Z,54.30
2018-07-01T07:14:35.245Z,54.00
2018-07-01T07:17:09.047Z,53.90
2018-07-01T07:19:43.539Z,53.30
2018-07-01T07:22:17.276Z,53.20
2018-07-01T07:24:50.873Z,53.40
2018-07-01T07:27:24.687Z,53.60
2018-07-01T07:29:59.310Z,53.60
2018-07-01T07:32:33.084Z,53.60
2018-07-01T07:35:07.738Z,53.20
2018-07-01T07:37:41.599Z,53.20
2018-07-01T07:40:16.023Z,52.80
2018-07-01T07:42:49.748Z,52.70
2018-07-01T07:45:23.476Z,52.70
2018-07-01T07:47:57.136Z,52.60
2018-07-01T07:50:31.822Z,51.80
2018-07-01T07:53:05.555Z,51.80
2018-07-01T07:55:40.131Z,52.30
2018-07-01T07:58:13.936Z,52.30
2018-07-01T08:00:47.616Z,52.10
2018-07-01T08:03:22.120Z,52.40
2018-07-01T08:08:34.304Z,50.90
2018-07-01T08:11:08.879Z,49.00
2018-07-01T08:13:42.689Z,49.00
2018-07-01T08:16:16.477Z,47.60
2018-07-01T08:18:51.034Z,45.60
2018-07-01T08:21:24.722Z,45.50
2018-07-01T08:23:58.567Z,43.80
2018-07-01T08:26:33.000Z,41.70
2018-07-01T08:29:06.742Z,41.70
2018-07-01T08:31:40.597Z,41.50
2018-07-01T08:34:14.396Z,40.90
2018-07-01T08:36:48.209Z,41.20
2018-07-01T08:39:22.014Z,41.30
2018-07-01T08:41:56.210Z,39.50
2018-07-01T08:44:30.008Z,40.10
2018-07-01T08:47:03.813Z,39.40
2018-07-01T08:49:37.589Z,39.50
2018-07-01T08:52:11.560Z,39.30
2018-07-01T08:54:45.255Z,38.40
2018-07-01T08:57:18.972Z,38.50
2018-07-01T08:59:52.765Z,37.90
2018-07-01T09:02:26.502Z,37.90
2018-07-01T09:05:01.014Z,37.90
2018-07-01T09:07:34.973Z,37.90
2018-07-01T09:10:09.465Z,36.80
2018-07-01T09:12:43.136Z,36.80
2018-07-01T09:15:16.963Z,37.00
2018-07-01T09:17:50.737Z,36.40
2018-07-01T09:20:24.516Z,36.40
2018-07-01T09:22:58.431Z,36.40
2018-07-01T09:25:32.860Z,36.60
2018-07-01T09:28:06.527Z,36.60
2018-07-01T09:30:40.186Z,35.90
2018-07-01T09:33:14.008Z,35.10
2018-07-01T09:35:47.677Z,35.30
2018-07-01T09:38:21.460Z,34.90
2018-07-01T09:40:55.266Z,34.90
2018-07-01T09:43:29.849Z,36.00
2018-07-01T09:46:03.529Z,36.10
2018-07-01T09:48:37.259Z,36.70
2018-07-01T09:51:10.959Z,36.60
2018-07-01T09:53:45.508Z,36.00
2018-07-01T09:56:20.093Z,35.80
2018-07-01T09:58:54.083Z,35.90
2018-07-01T10:01:27.960Z,36.20
2018-07-01T10:04:01.797Z,35.60
2018-07-01T10:06:35.644Z,35.10
2018-07-01T10:09:09.316Z,35.10
2018-07-01T10:11:43.932Z,34.50
2018-07-01T10:14:18.524Z,34.50
2018-07-01T10:16:52.879Z,35.00
2018-07-01T10:19:26.691Z,35.00
2018-07-01T10:22:00.386Z,34.70
2018-07-01T10:24:35.175Z,34.60
2018-07-01T10:27:08.896Z,35.10
2018-07-01T10:29:42.712Z,34.50
2018-07-01T10:32:17.331Z,33.90
2018-07-01T10:34:51.066Z,33.70
2018-07-01T10:37:24.858Z,33.90
2018-07-01T10:39:58.843Z,33.70
2018-07-01T10:42:32.624Z,33.80
2018-07-01T10:45:06.345Z,32.80
2018-07-01T10:47:40.912Z,32.60
2018-07-01T10:50:14.708Z,32.50
2018-07-01T10:52:48.299Z,33.30
2018-07-01T10:55:22.048Z,33.70
2018-07-01T10:57:55.898Z,33.60
2018-07-01T11:00:29.767Z,32.70
2018-07-01T11:03:03.530Z,33.30
2018-07-01T11:05:37.167Z,33.10
2018-07-01T11:08:11.737Z,32.00
2018-07-01T11:10:46.312Z,31.90
2018-07-01T11:13:20.148Z,31.80
2018-07-01T11:15:54.013Z,32.30
2018-07-01T11:18:27.839Z,31.60
2018-07-01T11:21:01.425Z,32.40
2018-07-01T11:23:35.179Z,32.70
2018-07-01T11:26:10.409Z,32.50
2018-07-01T11:28:44.139Z,32.40
2018-07-01T11:31:18.560Z,31.30
2018-07-01T11:33:52.366Z,31.20
2018-07-01T11:36:26.083Z,31.30
2018-07-01T11:38:59.906Z,31.80
2018-07-01T11:41:33.601Z,32.60
2018-07-01T11:44:07.247Z,33.10
2018-07-01T11:46:41.129Z,33.00
2018-07-01T11:49:14.972Z,33.00
2018-07-01T11:51:48.545Z,33.60
2018-07-01T11:54:22.364Z,33.50
2018-07-01T11:56:56.912Z,33.10
2018-07-01T11:59:30.621Z,33.10
2018-07-01T12:02:05.292Z,34.70
2018-07-01T12:05:02.949Z,33.60
2018-07-01T12:07:13.510Z,33.60
2018-07-01T12:09:47.333Z,32.90
2018-07-01T12:12:21.178Z,34.30
2018-07-01T12:14:55.078Z,34.30
2018-07-01T12:17:29.635Z,34.50
2018-07-01T12:20:03.385Z,34.50
2018-07-01T12:22:37.291Z,34.10
2018-07-01T12:25:11.117Z,34.30
2018-07-01T12:27:44.995Z,33.90
2018-07-01T12:30:19.632Z,33.60
2018-07-01T12:32:53.435Z,33.60
2018-07-01T12:35:27.322Z,34.10
2018-07-01T12:38:01.010Z,33.50
2018-07-01T12:40:34.827Z,34.00
2018-07-01T12:43:08.533Z,34.00
2018-07-01T12:45:42.953Z,33.90
2018-07-01T12:48:17.439Z,34.10
2018-07-01T12:50:51.046Z,34.10
2018-07-01T12:53:24.775Z,34.50
2018-07-01T12:55:58.548Z,34.30
2018-07-01T12:58:32.389Z,34.50
2018-07-01T13:01:06.986Z,34.60
2018-07-01T13:03:40.612Z,34.70
2018-07-01T13:06:14.237Z,34.50
2018-07-01T13:08:48.027Z,34.80
2018-07-01T13:11:21.815Z,35.10
2018-07-01T13:13:55.661Z,34.10
2018-07-01T13:16:29.472Z,34.40
2018-07-01T13:19:03.357Z,34.20
2018-07-01T13:21:36.981Z,34.30
2018-07-01T13:24:10.764Z,34.30
2018-07-01T13:26:44.456Z,34.10
2018-07-01T13:29:18.991Z,34.10
2018-07-01T13:31:53.471Z,33.90
2018-07-01T13:34:27.098Z,33.90
2018-07-01T13:37:00.921Z,33.60
2018-07-01T13:39:36.145Z,33.90
2018-07-01T13:42:09.999Z,33.80
2018-07-01T13:44:43.740Z,33.80
2018-07-01T13:47:17.472Z,33.30
2018-07-01T13:49:51.967Z,33.90
2018-07-01T13:52:25.825Z,33.80
2018-07-01T13:54:59.528Z,33.30
2018-07-01T13:57:33.314Z,33.70
2018-07-01T14:00:07.824Z,34.30
2018-07-01T14:02:41.650Z,34.30
2018-07-01T14:05:15.418Z,33.30
2018-07-01T14:07:49.249Z,33.60
2018-07-01T14:10:23.659Z,33.60
2018-07-01T14:12:57.379Z,33.50
2018-07-01T14:15:30.963Z,33.70
2018-07-01T14:18:04.749Z,33.20
2018-07-01T14:20:38.512Z,33.30
2018-07-01T14:23:12.294Z,34.00
2018-07-01T14:25:45.949Z,34.30
2018-07-01T14:28:19.739Z,33.60
2018-07-01T14:30:53.496Z,33.40
2018-07-01T14:33:27.184Z,33.10
2018-07-01T14:36:00.872Z,33.10
2018-07-01T14:38:34.512Z,33.50
2018-07-01T14:41:08.306Z,33.80
2018-07-01T14:43:42.895Z,33.60
2018-07-01T14:46:16.432Z,33.60
2018-07-01T14:48:50.140Z,33.40
2018-07-01T14:51:23.980Z,33.80
2018-07-01T14:53:57.793Z,33.50
2018-07-01T14:56:31.569Z,33.20
2018-07-01T14:59:05.184Z,33.20
2018-07-01T15:01:39.006Z,33.10
2018-07-01T15:04:12.737Z,33.20
2018-07-01T15:06:46.502Z,33.80
2018-07-01T15:09:20.428Z,33.30
2018-07-01T15:11:54.191Z,33.40
2018-07-01T15:14:27.895Z,33.30
2018-07-01T15:17:03.137Z,32.60
2018-07-01T15:19:36.928Z,32.60
2018-07-01T15:22:11.664Z,33.40
2018-07-01T15:24:45.194Z,33.30
2018-07-01T15:27:19.022Z,33.20
2018-07-01T15:29:52.708Z,33.60
2018-07-01T15:32:26.499Z,32.80
2018-07-01T15:35:00.308Z,32.90
2018-07-01T15:37:34.110Z,33.00
2018-07-01T15:40:08.023Z,33.00
2018-07-01T15:42:41.705Z,33.00
2018-07-01T15:45:15.401Z,32.80
2018-07-01T15:47:49.910Z,33.20
2018-07-01T15:50:23.784Z,33.20
2018-07-01T15:52:58.264Z,33.30
2018-07-01T15:55:31.928Z,33.30
2018-07-01T15:58:06.332Z,33.30
2018-07-01T16:00:40.070Z,33.30
2018-07-01T16:03:13.901Z,33.40
2018-07-01T16:05:47.678Z,33.70
2018-07-01T16:08:21.460Z,33.00
2018-07-01T16:10:55.328Z,34.20
2018-07-01T16:13:29.013Z,33.40
2018-07-01T16:16:02.873Z,33.60
2018-07-01T16:18:36.509Z,33.70
2018-07-01T16:21:10.360Z,33.90
2018-07-01T16:23:44.959Z,33.10
2018-07-01T16:26:18.778Z,32.80
2018-07-01T16:28:52.556Z,33.30
2018-07-01T16:31:26.300Z,33.10
2018-07-01T16:34:00.915Z,33.40
2018-07-01T16:36:34.590Z,33.30
2018-07-01T16:39:08.232Z,33.50
2018-07-01T16:41:41.989Z,33.50
2018-07-01T16:44:15.623Z,33.50
2018-07-01T16:46:49.375Z,33.60
2018-07-01T16:49:23.156Z,33.40
2018-07-01T16:51:56.806Z,33.20
2018-07-01T16:54:30.672Z,32.90
2018-07-01T16:57:04.588Z,32.90
2018-07-01T16:59:39.193Z,33.20
2018-07-01T17:02:12.997Z,33.20
2018-07-01T17:04:47.638Z,32.80
2018-07-01T17:07:22.197Z,32.90
2018-07-01T17:09:55.823Z,32.90
2018-07-01T17:12:29.546Z,32.80
2018-07-01T17:15:04.041Z,33.10
2018-07-01T17:17:37.640Z,33.00
2018-07-01T17:20:11.445Z,33.20
2018-07-01T17:22:45.203Z,33.30
2018-07-01T17:25:19.019Z,33.00
2018-07-01T17:27:52.748Z,32.80
2018-07-01T17:30:26.621Z,32.90
2018-07-01T17:33:06.381Z,32.90
2018-07-01T17:35:40.021Z,32.90
2018-07-01T17:38:13.847Z,32.60
2018-07-01T17:40:47.520Z,32.90
2018-07-01T17:43:21.251Z,33.20
2018-07-01T17:45:55.088Z,33.20
2018-07-01T17:48:28.924Z,33.30
2018-07-01T17:51:02.571Z,33.30
2018-07-01T17:53:53.004Z,33.10
2018-07-01T17:56:26.645Z,33.10
2018-07-01T17:59:01.247Z,32.80
2018-07-01T18:01:34.962Z,32.80
2018-07-01T18:04:08.702Z,32.80
2018-07-01T18:06:42.385Z,32.90
2018-07-01T18:09:16.231Z,32.80
2018-07-01T18:11:50.700Z,32.90
2018-07-01T18:14:24.351Z,33.00
2018-07-01T18:16:58.088Z,32.90
2018-07-01T18:19:31.846Z,33.10
2018-07-01T18:22:21.716Z,33.30
2018-07-01T18:24:58.072Z,34.40
2018-07-01T18:27:14.700Z,34.40
2018-07-01T18:29:49.217Z,36.40
2018-07-01T18:32:22.915Z,36.30
2018-07-01T18:34:56.625Z,37.50
2018-07-01T18:37:31.237Z,38.30
2018-07-01T18:40:05.029Z,38.30
2018-07-01T18:42:39.579Z,38.80
2018-07-01T18:45:13.259Z,39.10
2018-07-01T18:47:46.884Z,39.10
2018-07-01T18:50:20.761Z,38.70
2018-07-01T18:52:54.668Z,38.60
2018-07-01T18:55:29.197Z,38.60
2018-07-01T18:58:03.760Z,38.60
2018-07-01T19:00:37.437Z,38.60
2018-07-01T19:03:11.284Z,38.60
2018-07-01T19:05:45.105Z,38.80
2018-07-01T19:08:19.460Z,38.70
2018-07-01T19:10:53.340Z,38.80
2018-07-01T19:13:27.946Z,38.80
2018-07-01T19:16:01.636Z,38.80
2018-07-01T19:18:35.398Z,38.90
2018-07-01T19:21:09.201Z,39.20
2018-07-01T19:23:43.748Z,39.40
2018-07-01T19:26:17.565Z,39.10
2018-07-01T19:28:51.323Z,39.30
2018-07-01T19:31:25.070Z,39.40
2018-07-01T19:33:59.488Z,39.50
2018-07-01T19:36:34.120Z,39.50
2018-07-01T19:39:07.937Z,39.50
2018-07-01T19:41:42.420Z,39.70
2018-07-01T19:44:16.200Z,39.70
2018-07-01T19:46:49.915Z,39.80
2018-07-01T19:49:23.767Z,39.80
2018-07-01T19:51:57.429Z,39.70
2018-07-01T19:54:31.980Z,40.00
2018-07-01T19:57:05.887Z,40.00
2018-07-01T19:59:39.738Z,40.60
2018-07-01T20:02:14.366Z,40.20
2018-07-01T20:04:48.145Z,40.10
2018-07-01T20:07:21.877Z,40.30
2018-07-01T20:09:55.822Z,40.30
2018-07-01T20:12:30.354Z,40.50
2018-07-01T20:15:04.225Z,40.40
2018-07-01T20:17:38.765Z,40.80
2018-07-01T20:20:12.577Z,40.80
2018-07-01T20:22:46.280Z,41.10
2018-07-01T20:25:20.145Z,41.00
2018-07-01T20:27:53.876Z,41.10
2018-07-01T20:30:27.504Z,41.10
2018-07-01T20:33:01.308Z,41.60
2018-07-01T20:35:35.208Z,41.70
2018-07-01T20:38:09.055Z,41.80
2018-07-01T20:40:42.887Z,42.00
2018-07-01T20:43:16.514Z,42.30
2018-07-01T20:45:50.964Z,42.50
2018-07-01T20:48:24.684Z,42.50
2018-07-01T20:50:59.245Z,42.70
2018-07-01T20:53:33.008Z,42.70
2018-07-01T20:56:07.632Z,43.30
2018-07-01T20:58:41.548Z,43.20
2018-07-01T21:01:15.945Z,43.30
2018-07-01T21:03:49.632Z,43.30
2018-07-01T21:06:24.168Z,43.70
2018-07-01T21:08:58.829Z,43.80
2018-07-01T21:11:32.640Z,43.80
2018-07-01T21:14:07.133Z,43.60
2018-07-01T21:16:40.925Z,43.60
2018-07-01T21:19:15.561Z,44.40
2018-07-01T21:21:50.212Z,44.50
2018-07-01T21:24:24.802Z,44.70
2018-07-01T21:26:59.644Z,44.70
2018-07-01T21:29:34.267Z,44.80
2018-07-01T21:32:08.916Z,44.90
2018-07-01T21:34:42.697Z,44.70
2018-07-01T21:37:16.429Z,45.10
2018-07-01T21:39:50.332Z,45.10
2018-07-01T21:42:24.139Z,45.10
2018-07-01T21:44:57.877Z,45.40
2018-07-01T21:47:32.327Z,45.70
2018-07-01T21:50:06.983Z,45.90
2018-07-01T21:52:40.736Z,45.80
2018-07-01T21:55:15.310Z,45.90
2018-07-01T21:57:49.196Z,45.90
2018-07-01T22:00:22.978Z,46.00
2018-07-01T22:02:56.716Z,46.00
2018-07-01T22:05:30.508Z,46.20
2018-07-01T22:08:04.328Z,46.50
2018-07-01T22:10:49.988Z,46.90
2018-07-01T22:16:15.036Z,47.80
2018-07-01T22:18:48.792Z,47.70
2018-07-01T22:21:23.439Z,48.70
2018-07-01T22:23:58.000Z,49.00
2018-07-01T22:26:31.831Z,49.00
2018-07-01T22:29:05.589Z,49.30
2018-07-01T22:31:39.357Z,49.90
2018-07-01T22:34:13.154Z,49.70
2018-07-01T22:36:46.844Z,49.90
2018-07-01T22:39:21.292Z,51.40
2018-07-01T22:41:55.068Z,51.40
2018-07-01T22:44:28.853Z,52.00
2018-07-01T22:47:03.370Z,54.10
2018-07-01T22:49:37.235Z,53.60
2018-07-01T22:52:11.796Z,54.30
2018-07-01T22:54:46.431Z,55.00
2018-07-01T22:57:21.023Z,55.00
2018-07-01T22:59:54.828Z,55.00
2018-07-01T23:02:41.192Z,56.10
2018-07-01T23:05:14.992Z,56.10
2018-07-01T23:07:49.497Z,56.70
2018-07-01T23:10:23.332Z,56.70
2018-07-01T23:12:57.916Z,56.70
2018-07-01T23:15:31.664Z,56.60
2018-07-01T23:18:05.461Z,56.00
2018-07-01T23:20:40.067Z,55.40
2018-07-01T23:23:13.967Z,55.40
2018-07-01T23:25:47.722Z,54.90
2018-07-01T23:28:22.256Z,54.80
2018-07-01T23:30:56.239Z,54.80
2018-07-01T23:33:30.035Z,55.10
2018-07-01T23:36:04.547Z,55.10
2018-07-01T23:38:39.121Z,55.30
2018-07-01T23:41:12.857Z,54.80
2018-07-01T23:43:47.248Z,53.80
2018-07-01T23:46:21.051Z,53.80
2018-07-01T23:48:55.557Z,53.60
2018-07-01T23:51:29.387Z,53.60
2018-07-01T23:54:03.104Z,53.30
2018-07-01T23:56:36.915Z,52.90
2018-07-01T23:59:11.526Z,52.30
